logo
Search for airport 
image banner adimage banner adimage banner ad
image banner ad

LOAP - Waidhofen/Ybbs Kh

Located in District Waidhofen An Der Ybbs(Stadt), Austria

ICAO - , IATA -

Data provided by Airmate  

General information

Coordinates: N47°57'10" E14°47'17"
Elevation is 1279 feet MSL.
 
View others Airports in Lower Austria

Operational data

Special qualification required
Current time UTC:
Current local time:
Weather at : LOWL - Linz ( 54 km )
METAR: LOWL 271450Z 09006KT 060V140 CAVOK 24/13 Q1020 NOSIG
TAF: TAF LOWL 271115Z 2712/2812 VRB03KT CAVOK TX24/2714Z TN10/2805Z TEMPO 2715/2722 09007KT BECMG 2800/2802 0500 BCFG BKN001 PROB30 TEMPO 2803/2807 0300 FG VV001 BECMG 2807/2809 CAVOK
View NOTAMs / SUP AIP / TFR affecting this airport [VIEW]
Communications frequencies: [VIEW]

Runways:

Airport contact information

Address: District Waidhofen An Der Ybbs(Stadt) Austria

Satellite view of LOAP